Time;durP1;ratioP1;P1;durP2;ratioP2;P2;SDS_P1;SDS_P2;PMS_P1;PMS_P2;Temp;Humidity;BMP_temperature;BMP_pressure;BME280_temperature;BME280_humidity;BME280_pressure;Samples;Min_cycle;Max_cycle;Signal;HPM_P1;HPM_P2
2023/06/05 00:01:35;;;;;;;6.10;1.38;;;13.90;81.10;;;;;;4920697;29;20142;-68
2023/06/05 00:04:01;;;;;;;3.10;1.13;;;13.90;80.80;;;;;;4919134;29;20039;-69
2023/06/05 00:06:26;;;;;;;4.35;1.58;;;13.90;80.90;;;;;;4920688;29;20122;-68
2023/06/05 00:08:52;;;;;;;1.45;1.05;;;13.90;80.80;;;;;;4923747;29;20035;-68
2023/06/05 00:11:18;;;;;;;1.58;1.00;;;13.90;80.50;;;;;;4917167;29;20035;-68
2023/06/05 00:13:43;;;;;;;2.47;0.93;;;13.90;80.90;;;;;;4917593;29;20055;-67
2023/06/05 00:16:09;;;;;;;2.80;1.27;;;13.90;81.00;;;;;;4918754;29;20041;-68
2023/06/05 00:18:35;;;;;;;1.52;0.85;;;13.90;81.10;;;;;;4919849;29;20083;-67
2023/06/05 00:21:00;;;;;;;2.88;1.15;;;13.90;81.00;;;;;;4919712;29;20032;-68
2023/06/05 00:23:26;;;;;;;5.68;2.63;;;13.90;81.00;;;;;;4922733;29;20111;-68
2023/06/05 00:25:51;;;;;;;3.03;1.63;;;13.80;80.70;;;;;;4916618;29;20024;-68
2023/06/05 00:28:17;;;;;;;4.20;1.73;;;13.80;80.60;;;;;;4919649;29;20189;-68
2023/06/05 00:30:43;;;;;;;2.97;1.42;;;13.80;80.90;;;;;;4921399;29;20024;-67
2023/06/05 00:33:08;;;;;;;3.97;1.67;;;13.80;80.30;;;;;;4920121;29;20024;-67
2023/06/05 00:35:34;;;;;;;2.78;1.13;;;13.90;80.70;;;;;;4923049;29;20034;-68
2023/06/05 00:38:00;;;;;;;3.97;1.48;;;13.90;80.40;;;;;;4924710;29;20024;-68
2023/06/05 00:40:25;;;;;;;1.48;0.82;;;13.90;79.90;;;;;;4924136;29;20086;-67
2023/06/05 00:42:51;;;;;;;2.20;1.17;;;14.00;79.30;;;;;;4918500;29;20572;-67
2023/06/05 00:45:17;;;;;;;3.53;1.20;;;14.10;79.10;;;;;;4927196;29;20039;-67
2023/06/05 00:47:43;;;;;;;7.95;1.95;;;14.20;78.40;;;;;;4930950;29;20046;-66
2023/06/05 00:50:12;;;;;;;3.53;1.13;;;14.30;78.10;;;;;;4923291;29;20107;-67
2023/06/05 00:52:38;;;;;;;6.18;1.38;;;14.30;78.20;;;;;;4925848;29;21417;-68
2023/06/05 00:55:04;;;;;;;3.42;1.42;;;14.30;78.00;;;;;;4929524;29;20083;-67
2023/06/05 00:57:30;;;;;;;1.65;1.15;;;14.30;78.00;;;;;;4928430;29;20027;-68
2023/06/05 00:59:55;;;;;;;3.40;1.30;;;14.20;78.40;;;;;;4916501;29;20170;-68
2023/06/05 01:02:21;;;;;;;1.92;1.38;;;14.20;78.90;;;;;;4923405;29;20041;-68
2023/06/05 01:04:46;;;;;;;10.32;1.38;;;14.10;79.60;;;;;;4926887;29;20059;-68
2023/06/05 01:07:16;;;;;;;1.80;1.10;;;14.00;80.50;;;;;;4926290;29;20070;-67
2023/06/05 01:09:42;;;;;;;6.13;1.17;;;13.90;80.70;;;;;;4925907;29;20553;-68
2023/06/05 01:12:20;;;;;;;5.90;1.30;;;13.80;81.20;;;;;;4924459;29;20497;-68
2023/06/05 01:14:49;;;;;;;1.70;0.98;;;13.70;81.90;;;;;;4926445;29;20131;-68
2023/06/05 01:17:18;;;;;;;2.55;1.08;;;13.60;82.40;;;;;;4924079;29;20230;-67
2023/06/05 01:19:45;;;;;;;2.53;1.23;;;13.50;83.50;;;;;;4923416;29;20042;-67
2023/06/05 01:22:12;;;;;;;2.42;1.33;;;13.30;84.10;;;;;;4923891;29;20038;-67
2023/06/05 01:24:40;;;;;;;2.70;1.10;;;13.30;84.60;;;;;;4925150;29;20038;-68
2023/06/05 01:27:18;;;;;;;1.48;0.95;;;13.20;84.90;;;;;;4924732;29;20035;-67
2023/06/05 01:30:14;;;;;;;3.17;1.50;;;13.10;85.30;;;;;;4923463;29;20395;-67
2023/06/05 01:32:46;;;;;;;1.95;1.13;;;13.00;85.70;;;;;;4919048;29;20750;-67
2023/06/05 01:35:19;;;;;;;3.83;1.23;;;13.00;86.20;;;;;;4920715;29;20039;-68
2023/06/05 01:37:48;;;;;;;3.03;1.58;;;12.90;86.60;;;;;;4918710;29;20110;-67
2023/06/05 01:40:20;;;;;;;6.75;1.40;;;12.90;86.80;;;;;;4921844;29;20035;-67
2023/06/05 01:42:47;;;;;;;2.35;1.23;;;12.80;87.10;;;;;;4922649;29;20035;-68
2023/06/05 01:45:16;;;;;;;7.25;1.40;;;12.70;87.90;;;;;;4924258;29;20122;-66
2023/06/05 01:47:42;;;;;;;3.50;1.17;;;12.70;88.00;;;;;;4929707;29;20411;-68
2023/06/05 01:50:08;;;;;;;2.55;1.30;;;12.60;88.60;;;;;;4923560;29;20107;-67
2023/06/05 01:52:35;;;;;;;2.53;1.30;;;12.60;89.10;;;;;;4924897;29;20027;-67
2023/06/05 01:55:02;;;;;;;1.67;1.05;;;12.60;89.20;;;;;;4923807;29;20668;-68
2023/06/05 01:57:28;;;;;;;5.68;1.65;;;12.50;89.60;;;;;;4928549;29;20032;-68
2023/06/05 01:59:54;;;;;;;1.50;1.27;;;12.50;90.00;;;;;;4922453;29;20031;-68
2023/06/05 02:02:21;;;;;;;4.20;1.40;;;12.40;90.10;;;;;;4924144;29;20043;-68
2023/06/05 02:04:50;;;;;;;4.85;1.45;;;12.40;90.50;;;;;;4928314;29;20462;-68
2023/06/05 02:07:16;;;;;;;3.20;1.40;;;12.40;90.40;;;;;;4930595;29;20028;-67
2023/06/05 02:09:42;;;;;;;3.00;1.40;;;12.40;90.60;;;;;;4934709;29;20031;-68
2023/06/05 02:12:08;;;;;;;2.67;1.17;;;12.30;90.70;;;;;;4934476;29;20027;-68
2023/06/05 02:14:37;;;;;;;1.92;1.20;;;12.20;91.00;;;;;;4933673;29;20035;-68
2023/06/05 02:17:06;;;;;;;6.43;1.40;;;12.10;91.20;;;;;;4934819;29;20031;-66
2023/06/05 02:19:32;;;;;;;2.80;1.00;;;12.10;91.50;;;;;;4932934;29;20034;-68
2023/06/05 02:21:58;;;;;;;3.13;1.40;;;12.00;91.80;;;;;;4935205;29;20127;-68
2023/06/05 02:24:25;;;;;;;2.20;1.00;;;11.90;92.10;;;;;;4933952;29;20115;-68
2023/06/05 02:26:51;;;;;;;5.00;1.27;;;11.90;92.30;;;;;;4932329;29;20122;-68
2023/06/05 02:29:16;;;;;;;2.75;1.40;;;11.80;92.50;;;;;;4934478;29;20039;-67
2023/06/05 02:31:42;;;;;;;1.90;1.00;;;11.70;92.70;;;;;;4935081;29;20028;-67
2023/06/05 02:34:07;;;;;;;3.20;1.33;;;11.70;92.90;;;;;;4933291;29;20035;-67
2023/06/05 02:36:35;;;;;;;2.75;1.45;;;11.70;93.10;;;;;;4935069;29;20039;-69
2023/06/05 02:39:01;;;;;;;1.42;0.98;;;11.60;93.30;;;;;;4934647;29;20040;-68
2023/06/05 02:41:27;;;;;;;2.80;1.52;;;11.60;93.40;;;;;;4922618;29;20032;-68
2023/06/05 02:43:56;;;;;;;2.83;1.60;;;11.60;93.70;;;;;;4930478;29;20486;-68
2023/06/05 02:46:24;;;;;;;3.30;1.30;;;11.50;94.20;;;;;;4930532;29;20102;-68
2023/06/05 02:48:50;;;;;;;6.43;1.55;;;11.50;94.20;;;;;;4932787;29;20042;-68
2023/06/05 02:51:15;;;;;;;1.70;1.27;;;11.40;94.60;;;;;;4934418;29;20032;-67
2023/06/05 02:53:42;;;;;;;2.58;1.05;;;11.40;94.80;;;;;;4934705;29;20075;-68
2023/06/05 02:56:08;;;;;;;1.98;1.48;;;11.30;95.00;;;;;;4933266;29;20110;-69
2023/06/05 02:58:33;;;;;;;5.85;1.45;;;11.30;95.20;;;;;;4933574;29;20272;-66
2023/06/05 03:01:01;;;;;;;3.08;1.60;;;11.20;95.60;;;;;;4933389;29;20024;-66
2023/06/05 03:03:29;;;;;;;4.07;1.05;;;11.20;95.80;;;;;;4930102;29;20032;-66
2023/06/05 03:06:04;;;;;;;3.00;1.48;;;11.20;96.20;;;;;;4931490;29;20486;-64
2023/06/05 03:08:36;;;;;;;2.05;1.13;;;11.10;96.50;;;;;;4929234;29;20063;-67
2023/06/05 03:11:05;;;;;;;1.83;1.55;;;11.00;97.00;;;;;;4928817;29;20019;-68
2023/06/05 03:13:32;;;;;;;2.38;1.27;;;11.00;97.30;;;;;;4930814;29;20544;-65
2023/06/05 03:16:00;;;;;;;3.20;1.40;;;10.90;97.60;;;;;;4933412;29;20024;-66
2023/06/05 03:18:26;;;;;;;4.45;1.27;;;10.90;98.10;;;;;;4931955;29;20019;-69
2023/06/05 03:20:56;;;;;;;2.35;1.00;;;10.80;98.50;;;;;;4932655;29;20056;-68
2023/06/05 03:23:28;;;;;;;3.20;1.40;;;10.80;98.60;;;;;;4932381;29;20034;-68
2023/06/05 03:25:55;;;;;;;3.42;1.40;;;10.80;98.70;;;;;;4925887;29;20446;-66
2023/06/05 03:28:22;;;;;;;3.95;1.50;;;10.80;99.00;;;;;;4920538;29;20023;-68
2023/06/05 03:30:48;;;;;;;7.22;1.73;;;10.80;99.50;;;;;;4927814;29;20284;-66
2023/06/05 03:33:14;;;;;;;3.88;2.25;;;10.70;99.70;;;;;;4924737;29;20660;-64
2023/06/05 03:35:42;;;;;;;2.65;1.23;;;10.80;99.70;;;;;;4930213;29;20039;-66
2023/06/05 03:38:08;;;;;;;2.00;1.33;;;10.80;99.90;;;;;;4932537;29;20027;-68
2023/06/05 03:40:34;;;;;;;3.88;1.58;;;10.80;99.90;;;;;;4938026;29;20233;-65
2023/06/05 03:43:00;;;;;;;3.63;1.60;;;10.80;99.90;;;;;;4932169;29;20036;-69
2023/06/05 03:45:27;;;;;;;9.05;1.85;;;10.70;99.90;;;;;;4930860;29;20038;-68
2023/06/05 03:47:53;;;;;;;4.22;1.92;;;10.70;99.90;;;;;;4929536;29;20028;-68
2023/06/05 03:50:20;;;;;;;1.95;1.20;;;10.80;99.90;;;;;;4932430;29;20063;-67
2023/06/05 03:52:52;;;;;;;2.10;1.13;;;10.80;99.90;;;;;;4932083;29;20028;-68
2023/06/05 03:55:19;;;;;;;2.92;1.63;;;10.80;99.90;;;;;;4930821;29;20524;-66
2023/06/05 03:57:46;;;;;;;8.13;1.67;;;10.80;99.90;;;;;;4928541;29;20032;-68
2023/06/05 04:00:14;;;;;;;2.45;1.40;;;10.90;99.90;;;;;;4933831;29;20024;-66
2023/06/05 04:02:40;;;;;;;3.65;1.40;;;10.90;99.90;;;;;;4933303;29;20051;-66
2023/06/05 04:05:06;;;;;;;4.45;1.17;;;11.00;99.90;;;;;;4933323;29;20051;-67
2023/06/05 04:07:32;;;;;;;2.42;1.50;;;11.00;99.90;;;;;;4931011;29;20039;-67
2023/06/05 04:09:57;;;;;;;7.40;1.38;;;11.00;99.90;;;;;;4932527;29;20099;-68
2023/06/05 04:12:23;;;;;;;3.10;1.27;;;11.00;99.90;;;;;;4933282;29;20550;-67
2023/06/05 04:14:48;;;;;;;4.05;1.02;;;11.00;99.90;;;;;;4931629;29;20387;-69
2023/06/05 04:17:14;;;;;;;2.72;1.60;;;11.00;99.90;;;;;;4931494;29;20036;-67
2023/06/05 04:19:40;;;;;;;2.67;1.27;;;11.10;99.90;;;;;;4930402;29;20545;-68
2023/06/05 04:22:06;;;;;;;2.53;1.45;;;11.10;99.90;;;;;;4933210;29;20079;-68
2023/06/05 04:24:31;;;;;;;3.85;1.80;;;11.20;99.90;;;;;;4931475;29;20043;-67
2023/06/05 04:27:00;;;;;;;2.95;1.55;;;11.30;99.90;;;;;;4930458;29;20040;-68
2023/06/05 04:29:26;;;;;;;2.92;1.42;;;11.40;99.90;;;;;;4930652;29;20035;-67
2023/06/05 04:31:52;;;;;;;5.80;1.52;;;11.70;99.90;;;;;;4932386;29;20416;-69
2023/06/05 04:34:20;;;;;;;2.47;1.50;;;12.50;99.10;;;;;;4932682;29;20028;-68
2023/06/05 04:36:49;;;;;;;5.53;1.23;;;13.50;96.90;;;;;;4930948;29;20067;-67
2023/06/05 04:39:15;;;;;;;4.22;1.40;;;14.40;94.30;;;;;;4930858;29;20410;-68
2023/06/05 04:41:46;;;;;;;2.65;1.40;;;15.60;92.00;;;;;;4938232;29;20114;-68
2023/06/05 04:44:18;;;;;;;2.42;1.70;;;16.60;86.90;;;;;;4931394;29;20035;-68
2023/06/05 04:46:45;;;;;;;3.27;1.40;;;17.40;85.10;;;;;;4931554;29;20047;-68
2023/06/05 04:49:14;;;;;;;2.95;1.55;;;18.40;80.10;;;;;;4931743;29;20147;-68
2023/06/05 04:51:42;;;;;;;2.35;1.80;;;19.30;76.80;;;;;;4928957;29;20461;-65
2023/06/05 04:54:08;;;;;;;2.55;1.17;;;19.30;76.00;;;;;;4932018;29;20023;-66
2023/06/05 04:56:34;;;;;;;6.95;1.95;;;20.20;73.60;;;;;;4930442;29;20031;-66
2023/06/05 04:59:01;;;;;;;2.97;1.80;;;20.10;72.70;;;;;;4930813;29;20124;-66
2023/06/05 05:01:27;;;;;;;2.00;1.48;;;20.10;71.80;;;;;;4931584;29;20035;-66
2023/06/05 05:03:54;;;;;;;3.65;1.60;;;20.20;71.10;;;;;;4931818;29;20038;-66
2023/06/05 05:06:20;;;;;;;3.17;1.48;;;20.40;73.80;;;;;;4930873;29;20152;-66
2023/06/05 05:08:50;;;;;;;2.15;1.58;;;21.00;71.20;;;;;;4930582;29;20032;-67
2023/06/05 05:11:16;;;;;;;3.15;1.48;;;21.30;70.20;;;;;;4932430;29;20028;-67
2023/06/05 05:13:43;;;;;;;5.90;1.55;;;21.50;70.30;;;;;;4931295;29;20047;-66
2023/06/05 05:16:09;;;;;;;3.47;1.70;;;21.70;68.60;;;;;;4930210;29;20111;-67
2023/06/05 05:18:36;;;;;;;1.75;1.40;;;21.90;68.60;;;;;;4929845;29;20118;-66
2023/06/05 05:21:04;;;;;;;3.00;1.70;;;23.00;66.30;;;;;;4930415;29;20027;-67
2023/06/05 05:23:30;;;;;;;3.45;1.45;;;22.70;66.60;;;;;;4931502;29;20032;-66
2023/06/05 05:25:56;;;;;;;3.00;1.05;;;22.80;65.90;;;;;;4931071;29;20024;-67
2023/06/05 05:28:22;;;;;;;4.95;1.30;;;22.70;66.80;;;;;;4931613;29;20039;-67
2023/06/05 05:30:47;;;;;;;2.63;1.30;;;23.00;65.80;;;;;;4931323;29;20020;-67
2023/06/05 05:33:14;;;;;;;8.38;1.45;;;23.30;65.30;;;;;;4931347;29;20130;-67
2023/06/05 05:35:40;;;;;;;3.00;1.35;;;23.30;65.70;;;;;;4929510;29;20012;-67
2023/06/05 05:38:06;;;;;;;2.42;1.38;;;23.70;64.60;;;;;;4930862;29;20035;-66
2023/06/05 05:40:32;;;;;;;6.18;1.88;;;24.20;62.90;;;;;;4937777;29;20026;-66
2023/06/05 05:42:57;;;;;;;2.95;1.50;;;24.20;62.70;;;;;;4930819;29;20031;-67
2023/06/05 05:45:23;;;;;;;8.52;1.40;;;24.30;62.80;;;;;;4930216;29;20107;-67
2023/06/05 05:47:48;;;;;;;2.95;1.38;;;24.60;62.90;;;;;;4926146;29;20455;-67
2023/06/05 05:50:14;;;;;;;4.70;1.45;;;24.90;62.00;;;;;;4930670;29;20035;-67
2023/06/05 05:52:42;;;;;;;1.98;1.40;;;25.00;62.80;;;;;;4930645;29;20062;-67
2023/06/05 05:55:08;;;;;;;3.60;1.80;;;25.30;62.40;;;;;;4931396;29;20458;-66
2023/06/05 05:57:34;;;;;;;3.97;1.70;;;25.60;61.60;;;;;;4928907;29;20095;-67
2023/06/05 06:00:00;;;;;;;5.55;1.65;;;25.80;60.50;;;;;;4930239;29;20074;-67
2023/06/05 06:02:25;;;;;;;3.33;1.70;;;25.80;60.30;;;;;;4927905;29;20027;-67
2023/06/05 06:04:51;;;;;;;1.73;1.30;;;25.70;62.30;;;;;;4930270;29;20106;-68
2023/06/05 06:07:17;;;;;;;4.55;2.33;;;26.00;60.40;;;;;;4928720;29;20091;-67
2023/06/05 06:09:44;;;;;;;2.63;1.70;;;25.90;60.90;;;;;;4927630;29;20019;-67
2023/06/05 06:12:10;;;;;;;4.22;1.50;;;27.20;59.50;;;;;;4930010;29;20023;-67
2023/06/05 06:14:35;;;;;;;3.97;1.38;;;26.70;59.50;;;;;;4927714;29;20046;-67
2023/06/05 06:17:02;;;;;;;2.90;1.45;;;26.90;60.10;;;;;;4927665;29;20038;-67
2023/06/05 06:19:28;;;;;;;1.90;1.40;;;26.90;58.30;;;;;;4930047;29;20032;-67
2023/06/05 06:21:54;;;;;;;2.08;1.48;;;27.30;60.50;;;;;;4914773;29;20410;-67
2023/06/05 06:24:21;;;;;;;4.35;1.55;;;27.30;58.30;;;;;;4927557;29;20036;-67
2023/06/05 06:26:47;;;;;;;3.42;1.75;;;27.00;58.80;;;;;;4925510;29;20031;-67
2023/06/05 06:29:15;;;;;;;3.67;1.40;;;27.60;57.70;;;;;;4929694;29;20032;-67
2023/06/05 06:31:42;;;;;;;2.97;1.35;;;27.90;58.50;;;;;;4913196;29;20512;-67
2023/06/05 06:34:09;;;;;;;3.95;1.65;;;27.90;57.70;;;;;;4929038;29;20023;-67
2023/06/05 06:36:40;;;;;;;3.53;1.48;;;29.20;57.10;;;;;;4929318;29;20112;-67
2023/06/05 06:39:07;;;;;;;2.90;1.60;;;28.30;56.70;;;;;;4923928;29;20423;-67
2023/06/05 06:41:34;;;;;;;4.07;1.45;;;28.30;56.40;;;;;;4935497;29;20023;-67
2023/06/05 06:44:01;;;;;;;6.90;1.50;;;28.30;55.20;;;;;;4928924;29;20055;-67
2023/06/05 06:46:26;;;;;;;6.63;1.70;;;28.40;57.10;;;;;;4925688;29;20036;-67
2023/06/05 06:48:52;;;;;;;3.63;1.50;;;29.00;56.10;;;;;;4927183;29;20039;-67
2023/06/05 06:51:17;;;;;;;2.00;1.45;;;28.70;55.10;;;;;;4930196;29;20046;-67
2023/06/05 06:53:44;;;;;;;7.53;1.75;;;28.40;55.60;;;;;;4928709;29;20405;-67
2023/06/05 06:56:09;;;;;;;4.53;1.50;;;28.80;55.50;;;;;;4932866;29;20027;-68
2023/06/05 06:58:36;;;;;;;2.45;1.40;;;29.10;55.70;;;;;;4933237;29;20028;-67
2023/06/05 07:01:03;;;;;;;5.90;1.45;;;29.40;54.00;;;;;;4931061;29;20035;-67
2023/06/05 07:03:28;;;;;;;9.13;1.38;;;29.80;54.20;;;;;;4932978;29;20032;-67
2023/06/05 07:05:54;;;;;;;6.95;1.60;;;29.70;52.70;;;;;;4929166;29;20844;-67
2023/06/05 07:08:19;;;;;;;2.80;1.40;;;29.90;53.20;;;;;;4929180;29;20061;-67
2023/06/05 07:10:45;;;;;;;2.45;1.50;;;29.50;54.30;;;;;;4924889;29;20050;-67
2023/06/05 07:13:11;;;;;;;3.50;1.20;;;30.80;52.80;;;;;;4927709;29;20114;-67
2023/06/05 07:15:37;;;;;;;4.07;1.90;;;30.80;51.40;;;;;;4926842;29;20031;-68
2023/06/05 07:18:03;;;;;;;2.28;1.45;;;30.70;52.10;;;;;;4929145;29;20028;-67
2023/06/05 07:20:28;;;;;;;3.50;1.40;;;30.50;53.60;;;;;;4931806;29;20039;-67
2023/06/05 07:22:54;;;;;;;3.65;1.30;;;31.20;54.50;;;;;;4928413;29;20036;-67
2023/06/05 07:25:22;;;;;;;2.75;1.30;;;31.60;51.80;;;;;;4928858;29;20031;-66
2023/06/05 07:27:48;;;;;;;5.65;1.50;;;31.80;50.30;;;;;;4930776;29;20627;-67
2023/06/05 07:30:14;;;;;;;3.28;1.20;;;31.40;52.30;;;;;;4931707;29;20036;-67
2023/06/05 07:32:42;;;;;;;2.50;1.58;;;31.20;53.40;;;;;;4931678;29;20467;-67
2023/06/05 07:35:08;;;;;;;4.38;1.40;;;31.30;52.40;;;;;;4925798;29;20071;-66
2023/06/05 07:37:34;;;;;;;2.60;1.42;;;31.20;53.10;;;;;;4930549;29;20507;-67
2023/06/05 07:39:59;;;;;;;4.47;1.65;;;31.20;54.20;;;;;;4914161;29;20042;-67
2023/06/05 07:42:25;;;;;;;5.38;1.50;;;31.50;52.90;;;;;;4930874;29;20035;-67
2023/06/05 07:44:51;;;;;;;3.72;1.40;;;30.80;50.40;;;;;;4929076;29;20059;-67
2023/06/05 07:47:16;;;;;;;1.83;1.20;;;30.90;54.00;;;;;;4925101;29;20058;-67
2023/06/05 07:49:42;;;;;;;4.30;1.30;;;31.20;54.80;;;;;;4929305;29;20042;-68
2023/06/05 07:52:08;;;;;;;3.20;1.55;;;32.70;54.20;;;;;;4929967;29;20059;-67
2023/06/05 07:54:33;;;;;;;1.90;1.33;;;32.30;53.70;;;;;;4928932;29;20150;-67
2023/06/05 07:56:59;;;;;;;4.38;1.40;;;32.00;53.60;;;;;;4930716;29;20075;-67
2023/06/05 07:59:27;;;;;;;3.05;1.20;;;31.80;54.60;;;;;;4928674;29;20040;-67
2023/06/05 08:01:55;;;;;;;3.22;1.50;;;31.60;50.40;;;;;;4925035;29;20035;-67
2023/06/05 08:04:24;;;;;;;7.95;1.50;;;31.30;53.80;;;;;;4926452;29;20024;-67
2023/06/05 08:06:50;;;;;;;2.70;1.45;;;31.50;54.40;;;;;;4922912;29;20028;-66
2023/06/05 08:09:17;;;;;;;3.63;1.65;;;31.60;54.50;;;;;;4918781;29;20620;-67
2023/06/05 08:11:43;;;;;;;4.82;1.98;;;31.20;54.20;;;;;;4919654;29;20051;-67
2023/06/05 08:14:09;;;;;;;3.42;1.40;;;31.40;53.90;;;;;;4920440;29;20027;-67
2023/06/05 08:16:35;;;;;;;5.28;1.67;;;31.10;54.10;;;;;;4918529;29;20090;-68
2023/06/05 08:19:01;;;;;;;9.80;1.40;;;31.30;54.30;;;;;;4923332;29;20150;-67
2023/06/05 08:21:27;;;;;;;4.18;1.45;;;31.30;54.60;;;;;;4928859;29;20057;-67
2023/06/05 08:23:53;;;;;;;5.55;1.80;;;31.70;53.60;;;;;;4926876;29;20482;-67
2023/06/05 08:26:20;;;;;;;5.20;1.52;;;32.00;51.50;;;;;;4931332;29;20024;-68
2023/06/05 08:28:46;;;;;;;1.48;1.15;;;31.70;52.10;;;;;;4930256;29;20034;-67
2023/06/05 08:31:12;;;;;;;4.72;1.40;;;31.90;52.70;;;;;;4927517;29;20031;-67
2023/06/05 08:33:38;;;;;;;5.45;1.52;;;32.10;53.80;;;;;;4930229;29;22256;-67
2023/06/05 08:36:05;;;;;;;4.07;1.30;;;32.90;53.10;;;;;;4928423;29;20028;-68
2023/06/05 08:38:31;;;;;;;4.97;1.77;;;33.60;51.70;;;;;;4925196;29;20103;-67
2023/06/05 08:41:12;;;;;;;2.70;1.50;;;34.40;50.40;;;;;;4930124;29;20430;-67
2023/06/05 08:43:41;;;;;;;4.22;1.70;;;33.20;51.40;;;;;;4927799;29;20154;-67
2023/06/05 08:46:09;;;;;;;1.98;1.40;;;32.50;50.40;;;;;;4918812;29;20047;-67
2023/06/05 08:48:45;;;;;;;4.30;1.45;;;32.50;48.90;;;;;;4921338;29;20036;-67
2023/06/05 08:51:13;;;;;;;3.28;1.48;;;32.20;52.40;;;;;;4927906;29;20501;-66
2023/06/05 08:53:41;;;;;;;3.38;1.70;;;31.50;53.30;;;;;;4926224;29;20060;-67
2023/06/05 08:56:10;;;;;;;6.45;1.60;;;30.90;55.00;;;;;;4925380;29;20118;-68
2023/06/05 08:58:36;;;;;;;2.70;2.00;;;31.10;55.90;;;;;;4929177;29;20027;-67
2023/06/05 09:01:02;;;;;;;3.63;1.92;;;31.60;52.20;;;;;;4925984;29;20115;-67
2023/06/05 09:03:28;;;;;;;6.18;1.30;;;31.60;53.10;;;;;;4925357;29;20032;-68
2023/06/05 09:05:54;;;;;;;4.95;1.45;;;32.00;53.00;;;;;;4922206;29;20036;-67
2023/06/05 09:08:32;;;;;;;4.60;1.85;;;32.30;52.20;;;;;;4925463;29;20070;-68
2023/06/05 09:11:23;;;;;;;2.53;1.55;;;32.20;51.50;;;;;;4922485;29;20114;-68
2023/06/05 09:13:49;;;;;;;3.72;1.50;;;32.80;47.00;;;;;;4923080;29;20037;-67
2023/06/05 09:16:15;;;;;;;3.35;1.95;;;33.40;47.30;;;;;;4928977;29;20058;-67
2023/06/05 09:18:57;;;;;;;3.70;1.98;;;33.30;47.70;;;;;;4927724;29;20853;-67
2023/06/05 09:21:31;;;;;;;3.65;1.50;;;33.00;49.70;;;;;;4921501;29;22190;-68
2023/06/05 09:24:17;;;;;;;3.92;1.50;;;33.10;48.10;;;;;;4919641;29;20029;-67
2023/06/05 09:26:50;;;;;;;4.32;2.00;;;33.20;48.90;;;;;;4927300;29;20035;-67
2023/06/05 09:29:27;;;;;;;2.63;1.85;;;33.60;47.00;;;;;;4921473;29;20514;-68
2023/06/05 09:31:55;;;;;;;2.38;1.25;;;33.80;45.60;;;;;;4927777;29;20450;-67
2023/06/05 09:34:41;;;;;;;5.07;1.40;;;33.50;46.10;;;;;;4927901;29;20114;-68
2023/06/05 09:37:10;;;;;;;3.65;1.60;;;33.50;44.30;;;;;;4928195;29;20092;-67
2023/06/05 09:39:40;;;;;;;5.90;1.42;;;33.40;44.30;;;;;;4927919;29;20032;-67
2023/06/05 09:42:06;;;;;;;3.15;2.15;;;33.80;47.00;;;;;;4926382;29;20433;-67
2023/06/05 09:44:33;;;;;;;3.75;1.50;;;33.30;47.70;;;;;;4931921;29;20565;-67
2023/06/05 09:47:08;;;;;;;4.20;1.73;;;34.10;48.70;;;;;;4922118;29;20086;-68
2023/06/05 09:49:40;;;;;;;3.65;1.40;;;33.60;48.40;;;;;;4925088;29;20128;-67
2023/06/05 09:52:07;;;;;;;3.30;1.85;;;34.00;45.30;;;;;;4931835;29;20449;-67
2023/06/05 09:54:36;;;;;;;4.30;1.50;;;33.10;47.90;;;;;;4925574;29;20023;-67
2023/06/05 09:57:04;;;;;;;3.90;1.70;;;32.30;47.90;;;;;;4925703;29;20502;-67
2023/06/05 09:59:34;;;;;;;2.70;1.27;;;32.00;46.70;;;;;;4926442;29;20046;-67
2023/06/05 10:02:04;;;;;;;3.92;1.50;;;31.80;46.00;;;;;;4929995;29;20028;-67
2023/06/05 10:04:44;;;;;;;6.22;1.80;;;31.80;50.20;;;;;;4929554;29;20082;-67
2023/06/05 10:07:10;;;;;;;5.82;1.67;;;31.70;50.50;;;;;;4924696;29;20031;-66
2023/06/05 10:09:36;;;;;;;3.90;1.45;;;31.70;49.50;;;;;;4927782;29;20042;-67
2023/06/05 10:12:03;;;;;;;2.92;1.48;;;31.10;45.60;;;;;;4911516;29;22165;-67
2023/06/05 10:14:29;;;;;;;2.67;1.25;;;30.90;48.60;;;;;;4927826;29;20067;-67
2023/06/05 10:16:57;;;;;;;4.50;1.27;;;30.50;47.80;;;;;;4922168;29;20052;-67
2023/06/05 10:19:24;;;;;;;4.22;1.50;;;30.80;49.10;;;;;;4927572;29;20119;-67
2023/06/05 10:21:50;;;;;;;4.22;1.30;;;30.70;47.70;;;;;;4928117;29;20031;-67
2023/06/05 10:24:26;;;;;;;2.17;1.17;;;31.00;45.40;;;;;;4925209;29;20490;-66
2023/06/05 10:27:16;;;;;;;6.60;1.40;;;31.10;46.20;;;;;;4926683;29;20043;-66
2023/06/05 10:30:25;;;;;;;2.17;1.40;;;30.60;47.00;;;;;;4930213;29;20808;-66
2023/06/05 10:33:21;;;;;;;1.70;1.30;;;30.10;45.10;;;;;;4917534;29;20048;-67
2023/06/05 10:36:00;;;;;;;2.30;1.25;;;29.60;45.30;;;;;;4923204;29;20139;-66
2023/06/05 10:38:27;;;;;;;4.40;1.63;;;29.40;46.80;;;;;;4929657;29;20027;-67
2023/06/05 10:40:57;;;;;;;2.38;1.42;;;29.50;44.80;;;;;;4934937;29;20035;-67
2023/06/05 10:43:33;;;;;;;4.20;1.50;;;29.40;44.90;;;;;;4931058;29;20058;-66
2023/06/05 10:46:19;;;;;;;3.35;1.45;;;29.30;45.90;;;;;;4932158;29;20036;-67
2023/06/05 10:49:10;;;;;;;3.00;1.40;;;29.00;47.00;;;;;;4926176;29;20040;-66
2023/06/05 10:51:39;;;;;;;5.93;1.52;;;28.70;47.40;;;;;;4927414;29;20046;-67
2023/06/05 10:54:06;;;;;;;1.35;1.08;;;28.70;47.80;;;;;;4931395;29;20027;-67
2023/06/05 10:56:51;;;;;;;2.42;1.40;;;29.00;46.10;;;;;;4910461;29;20160;-66
2023/06/05 10:59:22;;;;;;;3.45;1.33;;;29.20;49.10;;;;;;4925813;29;20051;-66
2023/06/05 11:02:06;;;;;;;2.65;1.67;;;29.00;49.20;;;;;;4931721;29;20089;-66
2023/06/05 11:04:46;;;;;;;3.63;1.77;;;29.30;50.00;;;;;;4929481;29;20031;-66
2023/06/05 11:07:20;;;;;;;3.28;1.20;;;29.60;47.20;;;;;;4930051;29;20031;-66
2023/06/05 11:10:15;;;;;;;2.95;1.65;;;29.50;49.00;;;;;;4930146;29;20059;-66
2023/06/05 11:12:41;;;;;;;3.03;1.50;;;29.10;46.80;;;;;;4925794;29;20058;-65
2023/06/05 11:15:08;;;;;;;2.05;1.20;;;28.90;46.80;;;;;;4924783;29;20028;-66
2023/06/05 11:17:34;;;;;;;18.40;1.88;;;28.70;48.80;;;;;;4927686;29;20027;-66
2023/06/05 11:20:14;;;;;;;2.08;1.52;;;28.60;46.20;;;;;;4929509;29;20059;-66
2023/06/05 11:22:52;;;;;;;8.07;1.40;;;28.50;49.00;;;;;;4934458;29;20055;-66
2023/06/05 11:25:18;;;;;;;6.10;2.75;;;28.60;46.80;;;;;;4928729;29;20028;-67
2023/06/05 11:27:49;;;;;;;2.88;1.48;;;28.40;46.40;;;;;;4929857;29;20494;-66
2023/06/05 11:30:25;;;;;;;4.53;1.60;;;28.60;47.20;;;;;;4930865;29;20228;-66
2023/06/05 11:32:52;;;;;;;3.03;1.63;;;28.20;46.50;;;;;;4926171;29;20553;-66
2023/06/05 11:35:21;;;;;;;3.28;1.52;;;28.30;48.40;;;;;;4923079;29;20398;-66
2023/06/05 11:37:47;;;;;;;5.07;1.33;;;28.00;47.90;;;;;;4924559;29;20469;-65
2023/06/05 11:40:24;;;;;;;7.43;1.55;;;28.00;46.30;;;;;;4926750;29;20034;-66
2023/06/05 11:42:50;;;;;;;2.60;1.80;;;27.80;47.40;;;;;;4922224;29;20032;-65
2023/06/05 11:45:15;;;;;;;3.35;1.50;;;27.60;47.80;;;;;;4927648;29;20066;-66
2023/06/05 11:47:41;;;;;;;2.40;1.73;;;27.40;47.80;;;;;;4931574;29;20043;-66
2023/06/05 11:50:15;;;;;;;2.70;1.70;;;27.30;47.70;;;;;;4928737;29;20036;-66
2023/06/05 11:52:41;;;;;;;2.92;1.60;;;27.50;46.30;;;;;;4927964;29;20054;-66
2023/06/05 11:55:16;;;;;;;1.85;1.48;;;27.40;46.40;;;;;;4920187;29;20081;-66
2023/06/05 11:57:46;;;;;;;3.08;1.80;;;27.00;47.80;;;;;;4918215;29;20024;-66
2023/06/05 12:00:13;;;;;;;2.70;1.85;;;27.10;49.50;;;;;;4930541;29;20149;-66
2023/06/05 12:02:42;;;;;;;4.13;1.73;;;27.10;46.50;;;;;;4928592;29;20163;-66
2023/06/05 12:05:10;;;;;;;4.18;1.60;;;27.20;47.00;;;;;;4931145;29;20165;-66
2023/06/05 12:07:37;;;;;;;4.00;1.48;;;27.10;45.40;;;;;;4929789;29;20019;-66
2023/06/05 12:10:07;;;;;;;3.95;1.77;;;26.80;46.80;;;;;;4925046;29;20036;-66
2023/06/05 12:12:50;;;;;;;4.28;2.30;;;26.90;46.90;;;;;;4926628;29;20055;-66
2023/06/05 12:15:19;;;;;;;;;;;26.90;46.40;;;;;;4929948;29;20590;-65
2023/06/05 12:17:53;;;;;;;2.42;1.63;;;26.70;46.20;;;;;;4927871;29;19915;-66
2023/06/05 12:20:19;;;;;;;;;;;26.80;47.90;;;;;;4929036;29;20565;-66
2023/06/05 12:22:45;;;;;;;3.33;1.67;;;26.80;49.50;;;;;;4926930;29;20005;-66
2023/06/05 12:25:21;;;;;;;4.30;1.45;;;27.10;50.00;;;;;;4927902;29;20114;-66
2023/06/05 12:27:50;;;;;;;4.45;2.00;;;27.40;48.70;;;;;;4912416;29;20035;-66
2023/06/05 12:30:16;;;;;;;4.68;1.25;;;27.30;48.40;;;;;;4927479;29;20034;-66
2023/06/05 12:32:46;;;;;;;5.43;1.83;;;27.50;47.40;;;;;;4928646;29;20037;-66
2023/06/05 12:35:21;;;;;;;1.80;1.60;;;27.40;48.00;;;;;;4929489;29;20039;-66
2023/06/05 12:37:48;;;;;;;4.95;1.40;;;27.30;46.70;;;;;;4929992;29;20067;-66
2023/06/05 12:40:17;;;;;;;8.32;1.80;;;27.30;48.70;;;;;;4928946;29;20024;-67
2023/06/05 12:42:43;;;;;;;2.90;1.70;;;27.30;48.80;;;;;;4932326;29;20466;-66
2023/06/05 12:45:09;;;;;;;1.98;1.50;;;27.40;48.90;;;;;;4929770;29;20107;-66
2023/06/05 12:47:36;;;;;;;2.05;1.38;;;27.50;48.30;;;;;;4930211;29;20060;-66
2023/06/05 12:50:03;;;;;;;2.45;1.90;;;27.40;47.20;;;;;;4930329;29;20063;-66
2023/06/05 12:52:30;;;;;;;3.22;1.70;;;27.00;46.60;;;;;;4929905;29;20062;-65
2023/06/05 12:54:56;;;;;;;4.07;2.03;;;27.00;45.50;;;;;;4931567;29;20027;-66